createdAt,value
2019-06-07T00:00:41.037Z,0.00
2019-06-07T00:01:41.027Z,0.00
2019-06-07T00:02:41.028Z,0.00
2019-06-07T00:03:41.013Z,0.00
2019-06-07T00:04:40.995Z,0.00
2019-06-07T00:05:40.990Z,0.00
2019-06-07T00:06:40.972Z,0.00
2019-06-07T00:07:40.971Z,0.00
2019-06-07T00:08:40.950Z,0.00
2019-06-07T00:09:40.942Z,0.00
2019-06-07T00:10:40.928Z,0.00
2019-06-07T00:11:40.925Z,0.00
2019-06-07T00:12:40.928Z,0.00
2019-06-07T00:13:40.897Z,0.00
2019-06-07T00:14:40.887Z,0.00
2019-06-07T00:15:49.069Z,0.00
2019-06-07T00:16:40.864Z,0.00
2019-06-07T00:17:40.858Z,0.00
2019-06-07T00:18:40.852Z,0.00
2019-06-07T00:19:40.839Z,0.00
2019-06-07T00:20:40.823Z,0.00
2019-06-07T00:22:13.595Z,0.00
2019-06-07T00:22:41.817Z,0.00
2019-06-07T00:23:40.802Z,0.00
2019-06-07T00:24:40.777Z,0.00
2019-06-07T00:25:40.782Z,0.00
2019-06-07T00:26:57.052Z,0.00
2019-06-07T00:27:41.759Z,0.00
2019-06-07T00:28:40.742Z,0.00
2019-06-07T00:29:40.743Z,0.00
2019-06-07T00:30:51.136Z,0.00
2019-06-07T00:31:41.709Z,0.00
2019-06-07T00:32:40.730Z,0.00
2019-06-07T00:33:40.693Z,0.00
2019-06-07T00:34:40.672Z,0.00
2019-06-07T00:35:40.690Z,0.00
2019-06-07T00:36:40.651Z,0.00
2019-06-07T00:37:40.638Z,0.00
2019-06-07T00:38:40.637Z,0.00
2019-06-07T00:39:40.629Z,0.00
2019-06-07T00:40:40.605Z,0.00
2019-06-07T00:41:40.593Z,0.00
2019-06-07T00:42:40.582Z,0.00
2019-06-07T00:43:40.589Z,0.00
2019-06-07T00:44:40.561Z,0.00
2019-06-07T00:45:40.565Z,0.00
2019-06-07T00:46:40.539Z,0.00
2019-06-07T00:47:40.529Z,0.00
2019-06-07T00:48:40.530Z,0.00
2019-06-07T00:49:41.772Z,0.00
2019-06-07T00:50:40.499Z,0.00
2019-06-07T00:51:50.447Z,0.00
2019-06-07T00:53:13.849Z,0.00
2019-06-07T00:53:41.476Z,0.00
2019-06-07T00:54:40.457Z,0.00
2019-06-07T00:55:40.442Z,0.00
2019-06-07T00:56:40.466Z,0.00
2019-06-07T00:57:40.427Z,0.00
2019-06-07T00:58:40.420Z,0.00
2019-06-07T00:59:40.398Z,0.00
2019-06-07T01:00:40.394Z,0.00
2019-06-07T01:01:40.379Z,0.00
2019-06-07T01:02:40.367Z,0.00
2019-06-07T01:03:40.367Z,0.00
2019-06-07T01:04:40.405Z,0.00
2019-06-07T01:05:40.344Z,0.00
2019-06-07T01:06:40.325Z,0.00
2019-06-07T01:07:40.315Z,0.00
2019-06-07T01:08:40.314Z,0.00
2019-06-07T01:09:40.294Z,0.00
2019-06-07T01:10:52.979Z,0.00
2019-06-07T01:11:41.268Z,0.00
2019-06-07T01:12:40.258Z,0.00
2019-06-07T01:13:40.256Z,0.00
2019-06-07T01:14:40.330Z,0.00
2019-06-07T01:15:40.229Z,0.00
2019-06-07T01:16:56.616Z,0.00
2019-06-07T01:18:11.973Z,0.00
2019-06-07T01:18:46.561Z,0.00
2019-06-07T01:19:41.184Z,0.00
2019-06-07T01:20:40.220Z,0.00
2019-06-07T01:21:40.163Z,0.00
2019-06-07T01:22:40.153Z,0.00
2019-06-07T01:24:08.762Z,0.00
2019-06-07T01:24:41.131Z,0.00
2019-06-07T01:25:40.119Z,0.00
2019-06-07T01:26:40.110Z,0.00
2019-06-07T01:27:40.112Z,0.00
2019-06-07T01:28:40.164Z,0.00
2019-06-07T01:29:40.079Z,0.00
2019-06-07T01:30:40.065Z,0.00
2019-06-07T01:31:40.054Z,0.00
2019-06-07T01:32:40.043Z,0.00
2019-06-07T01:33:50.903Z,0.00
2019-06-07T01:34:41.039Z,0.00
2019-06-07T01:35:40.011Z,0.00
2019-06-07T01:36:40.004Z,0.00
2019-06-07T01:37:39.988Z,0.00
2019-06-07T01:38:39.980Z,0.00
2019-06-07T01:39:39.982Z,0.00
2019-06-07T01:40:39.957Z,0.00
2019-06-07T01:41:39.974Z,0.00
2019-06-07T01:42:39.935Z,0.00
2019-06-07T01:43:39.925Z,0.00
2019-06-07T01:44:39.983Z,0.00
2019-06-07T01:45:39.909Z,0.00
2019-06-07T01:46:39.896Z,0.00
2019-06-07T01:47:39.883Z,0.00
2019-06-07T01:48:49.544Z,0.00
2019-06-07T01:49:40.875Z,0.00
2019-06-07T01:50:39.853Z,0.00
2019-06-07T01:51:39.849Z,0.00
2019-06-07T01:52:39.838Z,0.00
2019-06-07T01:53:39.910Z,0.00
2019-06-07T01:54:56.751Z,0.00
2019-06-07T01:55:40.795Z,0.00
2019-06-07T01:56:39.792Z,0.00
2019-06-07T01:57:48.000Z,0.00
2019-06-07T01:58:40.763Z,0.00
2019-06-07T01:59:39.780Z,0.00
2019-06-07T02:00:39.743Z,0.00
2019-06-07T02:01:39.744Z,0.00
2019-06-07T02:02:39.721Z,0.00
2019-06-07T02:03:39.714Z,0.00
2019-06-07T02:04:39.713Z,0.00
2019-06-07T02:05:39.699Z,0.00
2019-06-07T02:06:39.677Z,0.00
2019-06-07T02:07:39.667Z,0.00
2019-06-07T02:08:39.659Z,0.00
2019-06-07T02:09:39.654Z,0.00
2019-06-07T02:10:39.639Z,0.00
2019-06-07T02:11:39.624Z,0.00
2019-06-07T02:12:43.071Z,0.00
2019-06-07T02:13:39.602Z,0.00
2019-06-07T02:14:39.600Z,0.00
2019-06-07T02:15:39.582Z,0.00
2019-06-07T02:16:39.572Z,4.00
2019-06-07T02:17:39.562Z,4.00
2019-06-07T02:19:00.541Z,4.00
2019-06-07T02:19:40.551Z,0.00
2019-06-07T02:20:39.530Z,0.00
2019-06-07T02:21:39.518Z,4.00
2019-06-07T02:22:39.507Z,4.00
2019-06-07T02:23:39.494Z,4.00
2019-06-07T02:24:39.495Z,8.00
2019-06-07T02:25:48.614Z,4.00
2019-06-07T02:26:40.485Z,4.00
2019-06-07T02:27:39.455Z,8.00
2019-06-07T02:28:45.671Z,8.00
2019-06-07T02:29:40.440Z,8.00
2019-06-07T02:30:47.628Z,8.00
2019-06-07T02:31:40.408Z,12.00
2019-06-07T02:32:39.401Z,8.00
2019-06-07T02:33:40.433Z,12.00
2019-06-07T02:34:39.942Z,12.00
2019-06-07T02:35:40.978Z,12.00
2019-06-07T02:36:41.721Z,12.00
2019-06-07T02:37:39.348Z,16.00
2019-06-07T02:38:39.393Z,16.00
2019-06-07T02:39:41.022Z,20.00
2019-06-07T02:40:39.316Z,20.00
2019-06-07T02:41:40.464Z,24.00
2019-06-07T02:42:42.816Z,24.00
2019-06-07T02:43:39.300Z,24.00
2019-06-07T02:44:40.334Z,28.00
2019-06-07T02:45:43.583Z,28.00
2019-06-07T02:46:46.778Z,32.00
2019-06-07T02:47:40.244Z,32.00
2019-06-07T02:48:40.397Z,36.00
2019-06-07T02:49:41.764Z,36.00
2019-06-07T02:50:39.221Z,40.00
2019-06-07T02:51:41.719Z,40.00
2019-06-07T02:52:40.462Z,44.00
2019-06-07T02:53:40.421Z,48.00
2019-06-07T02:54:40.385Z,52.00
2019-06-07T02:56:32.797Z,52.00
2019-06-07T02:56:56.789Z,56.00
2019-06-07T02:57:42.276Z,56.00
2019-06-07T02:58:41.698Z,64.00
2019-06-07T03:00:02.878Z,64.00
2019-06-07T03:00:54.497Z,72.00
2019-06-07T03:01:42.561Z,72.00
2019-06-07T03:02:41.479Z,80.00
2019-06-07T03:03:40.145Z,84.00
2019-06-07T03:04:44.035Z,88.00
2019-06-07T03:05:41.651Z,92.00
2019-06-07T03:06:43.453Z,100.00
2019-06-07T03:07:44.845Z,104.00
2019-06-07T03:08:40.010Z,112.00
2019-06-07T03:09:39.961Z,124.00
2019-06-07T03:10:41.732Z,140.00
2019-06-07T03:11:39.077Z,148.00
2019-06-07T03:12:39.295Z,160.00
2019-06-07T03:13:41.033Z,172.00
2019-06-07T03:14:39.453Z,188.00
2019-06-07T03:15:47.651Z,200.00
2019-06-07T03:16:39.923Z,212.00
2019-06-07T03:17:40.898Z,216.00
2019-06-07T03:18:41.498Z,224.00
2019-06-07T03:19:39.568Z,224.00
2019-06-07T03:20:39.862Z,224.00
2019-06-07T03:21:41.687Z,216.00
2019-06-07T03:22:41.358Z,212.00
2019-06-07T03:23:39.230Z,212.00
2019-06-07T03:24:42.001Z,220.00
2019-06-07T03:25:39.835Z,224.00
2019-06-07T03:27:30.339Z,236.00
2019-06-07T03:27:48.279Z,240.00
2019-06-07T03:28:39.794Z,244.00
2019-06-07T03:29:41.176Z,252.00
2019-06-07T03:30:57.066Z,256.00
2019-06-07T03:31:46.665Z,252.00
2019-06-07T03:32:46.748Z,252.00
2019-06-07T03:33:42.918Z,256.00
2019-06-07T03:34:43.532Z,268.00
2019-06-07T03:35:40.660Z,280.00
2019-06-07T03:36:40.055Z,288.00
2019-06-07T03:37:42.309Z,296.00
2019-06-07T03:38:39.946Z,304.00
2019-06-07T03:39:40.916Z,304.00
2019-06-07T03:40:40.203Z,300.00
2019-06-07T03:41:46.326Z,304.00
2019-06-07T03:42:40.209Z,300.00
2019-06-07T03:43:40.636Z,308.00
2019-06-07T03:44:41.598Z,316.00
2019-06-07T03:45:41.556Z,332.00
2019-06-07T03:46:41.481Z,348.00
2019-06-07T03:47:42.063Z,372.00
2019-06-07T03:48:41.049Z,396.00
2019-06-07T03:49:42.188Z,420.00
2019-06-07T03:50:41.994Z,448.00
2019-06-07T03:51:40.548Z,468.00
2019-06-07T03:52:41.084Z,476.00
2019-06-07T03:53:40.831Z,488.00
2019-06-07T03:54:39.863Z,492.00
2019-06-07T03:55:41.193Z,504.00
2019-06-07T03:56:40.874Z,488.00
2019-06-07T03:58:29.329Z,488.00
2019-06-07T03:58:49.064Z,484.00
2019-06-07T03:59:41.465Z,448.00
2019-06-07T04:00:42.735Z,408.00
2019-06-07T04:01:41.053Z,376.00
2019-06-07T04:02:41.755Z,356.00
2019-06-07T04:03:46.490Z,348.00
2019-06-07T04:04:39.933Z,356.00
2019-06-07T04:05:43.296Z,360.00
2019-06-07T04:06:42.144Z,372.00
2019-06-07T04:07:43.774Z,384.00
2019-06-07T04:08:42.224Z,396.00
2019-06-07T04:09:42.047Z,412.00
2019-06-07T04:10:55.829Z,432.00
2019-06-07T04:11:40.792Z,448.00
2019-06-07T04:12:40.030Z,468.00
2019-06-07T04:13:42.900Z,480.00
2019-06-07T04:14:40.878Z,492.00
2019-06-07T04:15:41.226Z,508.00
2019-06-07T04:16:43.565Z,520.00
2019-06-07T04:17:48.926Z,532.00
2019-06-07T04:18:40.728Z,544.00
2019-06-07T04:19:42.814Z,552.00
2019-06-07T04:20:40.792Z,560.00
2019-06-07T04:21:42.475Z,568.00
2019-06-07T04:22:41.947Z,600.00
2019-06-07T04:23:44.903Z,636.00
2019-06-07T04:24:41.945Z,668.00
2019-06-07T04:25:42.272Z,696.00
2019-06-07T04:26:43.151Z,716.00
2019-06-07T04:27:40.802Z,740.00
2019-06-07T04:29:30.874Z,760.00
2019-06-07T04:30:03.424Z,772.00
2019-06-07T04:30:41.494Z,780.00
2019-06-07T04:31:39.884Z,788.00
2019-06-07T04:32:40.625Z,800.00
2019-06-07T04:33:42.344Z,812.00
2019-06-07T04:34:42.615Z,824.00
2019-06-07T04:35:40.142Z,828.00
2019-06-07T04:36:51.970Z,836.00
2019-06-07T04:37:41.176Z,848.00
2019-06-07T04:38:40.589Z,852.00
2019-06-07T04:39:44.113Z,868.00
2019-06-07T04:40:40.031Z,876.00
2019-06-07T04:41:39.046Z,880.00
2019-06-07T04:42:43.668Z,876.00
2019-06-07T04:43:41.251Z,880.00
2019-06-07T04:44:41.119Z,876.00
2019-06-07T04:45:46.220Z,876.00
2019-06-07T04:46:42.203Z,876.00
2019-06-07T04:47:39.625Z,880.00
2019-06-07T04:48:41.826Z,888.00
2019-06-07T04:49:43.428Z,892.00
2019-06-07T04:50:43.462Z,908.00
2019-06-07T04:51:42.079Z,924.00
2019-06-07T04:52:42.795Z,944.00
2019-06-07T04:53:43.072Z,956.00
2019-06-07T04:54:40.634Z,972.00
2019-06-07T04:55:41.379Z,996.00
2019-06-07T04:56:42.113Z,1024.00
2019-06-07T04:57:40.409Z,1044.00
2019-06-07T04:58:38.978Z,1064.00
2019-06-07T05:01:02.841Z,1088.00
2019-06-07T05:01:41.394Z,1100.00
2019-06-07T05:02:40.280Z,1108.00
2019-06-07T05:03:43.431Z,1120.00
2019-06-07T05:04:41.675Z,1136.00
2019-06-07T05:05:41.865Z,1152.00
2019-06-07T05:06:40.319Z,1164.00
2019-06-07T05:07:39.980Z,1184.00
2019-06-07T05:08:42.529Z,1212.00
2019-06-07T05:09:42.946Z,1228.00
2019-06-07T05:10:38.862Z,1244.00
2019-06-07T05:11:39.330Z,1252.00
2019-06-07T05:12:40.439Z,1264.00
2019-06-07T05:13:41.446Z,1280.00
2019-06-07T05:14:39.872Z,1300.00
2019-06-07T05:15:40.006Z,1328.00
2019-06-07T05:16:40.651Z,1352.00
2019-06-07T05:17:42.550Z,1368.00
2019-06-07T05:18:40.201Z,1380.00
2019-06-07T05:19:41.743Z,1392.00
2019-06-07T05:20:41.522Z,1408.00
2019-06-07T05:22:01.427Z,1436.00
2019-06-07T05:22:42.598Z,1460.00
2019-06-07T05:24:41.544Z,1500.00
2019-06-07T05:25:42.618Z,1516.00
2019-06-07T05:26:40.455Z,1528.00
2019-06-07T05:27:39.225Z,1544.00
2019-06-07T05:28:40.623Z,1560.00
2019-06-07T05:29:40.619Z,1584.00
2019-06-07T05:31:07.836Z,1608.00
2019-06-07T05:31:41.817Z,1636.00
2019-06-07T05:32:43.654Z,1672.00
2019-06-07T05:33:40.598Z,1700.00
2019-06-07T05:34:41.898Z,1732.00
2019-06-07T05:35:41.808Z,1764.00
2019-06-07T05:36:39.911Z,1804.00
2019-06-07T05:37:38.129Z,1836.00
2019-06-07T05:38:41.162Z,1868.00
2019-06-07T05:39:42.457Z,1892.00
2019-06-07T05:40:41.962Z,1916.00
2019-06-07T05:41:41.177Z,1940.00
2019-06-07T05:42:41.134Z,1964.00
2019-06-07T05:43:44.110Z,1984.00
2019-06-07T05:44:39.980Z,2008.00
2019-06-07T05:45:42.636Z,2012.00
2019-06-07T05:46:41.311Z,2020.00
2019-06-07T05:47:43.754Z,2036.00
2019-06-07T05:48:41.675Z,2060.00
2019-06-07T05:49:40.635Z,2052.00
2019-06-07T05:50:44.869Z,2068.00
2019-06-07T05:51:41.918Z,2092.00
2019-06-07T05:52:40.506Z,2108.00
2019-06-07T05:53:39.960Z,2128.00
2019-06-07T05:54:38.231Z,2148.00
2019-06-07T05:55:37.877Z,2168.00
2019-06-07T05:56:39.400Z,2180.00
2019-06-07T05:57:40.419Z,2208.00
2019-06-07T05:58:41.442Z,2252.00
2019-06-07T05:59:40.023Z,2300.00
2019-06-07T06:00:39.010Z,2332.00
2019-06-07T06:01:45.118Z,2352.00
2019-06-07T06:02:56.761Z,2368.00
2019-06-07T06:03:38.165Z,2404.00
2019-06-07T06:04:39.316Z,2440.00
2019-06-07T06:05:42.496Z,2452.00
2019-06-07T06:06:39.566Z,2448.00
2019-06-07T06:07:41.125Z,2472.00
2019-06-07T06:08:39.259Z,2520.00
2019-06-07T06:09:38.163Z,2528.00
2019-06-07T06:10:39.685Z,2524.00
2019-06-07T06:11:49.414Z,2496.00
2019-06-07T06:12:42.679Z,2476.00
2019-06-07T06:13:55.083Z,2492.00
2019-06-07T06:14:41.986Z,2496.00
2019-06-07T06:15:45.338Z,2492.00
2019-06-07T06:16:39.759Z,2500.00
2019-06-07T06:17:40.944Z,2512.00
2019-06-07T06:18:38.137Z,2536.00
2019-06-07T06:19:39.739Z,2556.00
2019-06-07T06:21:00.824Z,2560.00
2019-06-07T06:21:38.580Z,2572.00
2019-06-07T06:22:39.716Z,2576.00
2019-06-07T06:23:39.571Z,2580.00
2019-06-07T06:24:37.648Z,2592.00
2019-06-07T06:25:38.673Z,2628.00
2019-06-07T06:26:40.747Z,2652.00
2019-06-07T06:28:38.366Z,2696.00
2019-06-07T06:29:38.695Z,2716.00
2019-06-07T06:30:38.143Z,2752.00
2019-06-07T06:31:37.919Z,2780.00
2019-06-07T06:32:42.988Z,2820.00
2019-06-07T06:33:37.814Z,2848.00
2019-06-07T06:34:40.110Z,2872.00
2019-06-07T06:35:37.780Z,2904.00
2019-06-07T06:36:37.340Z,2932.00
2019-06-07T06:37:40.392Z,2948.00
2019-06-07T06:38:38.549Z,2980.00
2019-06-07T06:39:37.137Z,3016.00
2019-06-07T06:40:38.938Z,3032.00
2019-06-07T06:41:52.257Z,3044.00
2019-06-07T06:42:39.868Z,3068.00
2019-06-07T06:43:38.572Z,3104.00
2019-06-07T06:44:40.247Z,3112.00
2019-06-07T06:45:37.743Z,3108.00
2019-06-07T06:46:40.986Z,3132.00
2019-06-07T06:47:38.254Z,3184.00
2019-06-07T06:48:36.653Z,3236.00
2019-06-07T06:49:36.629Z,3252.00
2019-06-07T06:50:36.620Z,3236.00
2019-06-07T06:51:36.615Z,3280.00
2019-06-07T06:52:36.600Z,3312.00
2019-06-07T06:53:36.597Z,3336.00
2019-06-07T06:54:43.029Z,3368.00
2019-06-07T06:55:38.979Z,3396.00
2019-06-07T06:56:36.567Z,3364.00
2019-06-07T06:57:36.542Z,3320.00
2019-06-07T06:59:21.966Z,3344.00
2019-06-07T06:59:39.553Z,3368.00
2019-06-07T07:00:46.354Z,3388.00
2019-06-07T07:01:37.500Z,3392.00
2019-06-07T07:03:26.735Z,3404.00
2019-06-07T07:03:57.140Z,3444.00
2019-06-07T07:04:37.466Z,3464.00
2019-06-07T07:05:36.495Z,3500.00
2019-06-07T07:06:36.446Z,3532.00
2019-06-07T07:07:36.437Z,3584.00
2019-06-07T07:08:36.425Z,3620.00
2019-06-07T07:09:36.436Z,3664.00
2019-06-07T07:10:36.406Z,3732.00
2019-06-07T07:11:52.263Z,3792.00
2019-06-07T07:12:37.386Z,3868.00
2019-06-07T07:13:36.410Z,3916.00
2019-06-07T07:14:36.377Z,3952.00
2019-06-07T07:15:36.370Z,4028.00
2019-06-07T07:16:36.344Z,4264.00
2019-06-07T07:17:50.655Z,4544.00
2019-06-07T07:18:37.392Z,4920.00
2019-06-07T07:19:36.323Z,5720.00
2019-06-07T07:20:36.306Z,6636.00
2019-06-07T07:21:36.295Z,7828.00
2019-06-07T07:22:36.306Z,25504.00
2019-06-07T07:23:36.275Z,52896.00
2019-06-07T07:24:36.273Z,62912.00
2019-06-07T07:25:36.249Z,57152.00
2019-06-07T07:26:36.250Z,55840.00
2019-06-07T07:27:36.231Z,61760.00
2019-06-07T07:28:36.221Z,62688.00
2019-06-07T07:29:36.221Z,61920.00
2019-06-07T07:30:37.454Z,64608.00
2019-06-07T07:31:36.186Z,65824.00
2019-06-07T07:32:36.176Z,65952.00
2019-06-07T07:34:37.714Z,64000.00
2019-06-07T07:35:36.142Z,65472.00
2019-06-07T07:36:39.743Z,62336.00
2019-06-07T07:37:36.124Z,57152.00
2019-06-07T07:38:36.112Z,53920.00
2019-06-07T07:39:36.114Z,53504.00
2019-06-07T07:40:56.826Z,51552.00
2019-06-07T07:41:37.077Z,49696.00
2019-06-07T07:42:36.099Z,46240.00
2019-06-07T07:43:36.061Z,43872.00
2019-06-07T07:44:36.058Z,35296.00
2019-06-07T07:45:36.043Z,15164.00
2019-06-07T07:46:36.027Z,5276.00
2019-06-07T07:47:36.019Z,7324.00
2019-06-07T07:48:36.005Z,5632.00
2019-06-07T07:49:36.008Z,4752.00
2019-06-07T07:50:35.984Z,4812.00
2019-06-07T07:51:35.975Z,5180.00
2019-06-07T07:52:35.963Z,8184.00
2019-06-07T07:53:48.513Z,7468.00
2019-06-07T07:54:36.947Z,5224.00
2019-06-07T07:55:35.932Z,5376.00
2019-06-07T07:56:35.917Z,5508.00
2019-06-07T07:57:35.951Z,5604.00
2019-06-07T07:58:35.903Z,5704.00
2019-06-07T07:59:42.213Z,5772.00
2019-06-07T08:00:52.562Z,5776.00
2019-06-07T08:01:36.870Z,5788.00
2019-06-07T08:02:35.861Z,5848.00
2019-06-07T08:03:35.863Z,5884.00
2019-06-07T08:05:12.891Z,5924.00
2019-06-07T08:05:42.831Z,5932.00
2019-06-07T08:06:36.810Z,5944.00
2019-06-07T08:07:35.802Z,5964.00
2019-06-07T08:08:35.790Z,6008.00
2019-06-07T08:09:35.798Z,6156.00
2019-06-07T08:10:35.769Z,6236.00
2019-06-07T08:11:35.759Z,6176.00
2019-06-07T08:12:55.884Z,6188.00
2019-06-07T08:13:37.416Z,6236.00
2019-06-07T08:14:35.801Z,6284.00
2019-06-07T08:15:35.767Z,6328.00
2019-06-07T08:16:35.729Z,6380.00
2019-06-07T08:17:35.738Z,6540.00
2019-06-07T08:18:35.862Z,6752.00
2019-06-07T08:19:35.742Z,7064.00
2019-06-07T08:20:35.732Z,7044.00
2019-06-07T08:21:35.703Z,7132.00
2019-06-07T08:22:35.644Z,7088.00
2019-06-07T08:23:35.635Z,6996.00
2019-06-07T08:24:35.623Z,6972.00
2019-06-07T08:25:35.619Z,7060.00
2019-06-07T08:26:35.604Z,7496.00
2019-06-07T08:27:35.594Z,7592.00
2019-06-07T08:28:35.581Z,7876.00
2019-06-07T08:29:45.035Z,8576.00
2019-06-07T08:30:58.313Z,10160.00
2019-06-07T08:31:36.547Z,3444.00
2019-06-07T08:32:35.537Z,10392.00
2019-06-07T08:33:35.529Z,7988.00
2019-06-07T08:34:35.554Z,9284.00
2019-06-07T08:36:42.462Z,8808.00
2019-06-07T08:38:14.305Z,9412.00
2019-06-07T08:38:47.447Z,6360.00
2019-06-07T08:39:36.511Z,6964.00
2019-06-07T08:40:35.466Z,5516.00
2019-06-07T08:41:35.444Z,5812.00
2019-06-07T08:42:37.219Z,6424.00
2019-06-07T08:43:36.422Z,10304.00
2019-06-07T08:44:35.416Z,9468.00
2019-06-07T08:45:35.414Z,7956.00
2019-06-07T08:46:35.402Z,5488.00
2019-06-07T08:47:35.388Z,5060.00
2019-06-07T08:48:35.373Z,5764.00
2019-06-07T08:49:35.367Z,6676.00
2019-06-07T08:50:35.361Z,6412.00
2019-06-07T08:51:35.358Z,6648.00
2019-06-07T08:52:35.369Z,9432.00
2019-06-07T08:53:35.343Z,9596.00
2019-06-07T08:54:35.317Z,9396.00
2019-06-07T08:55:35.361Z,5784.00
2019-06-07T08:56:35.289Z,5572.00
2019-06-07T08:57:35.279Z,6096.00
2019-06-07T08:58:35.277Z,7692.00
2019-06-07T08:59:35.257Z,7840.00
2019-06-07T09:00:46.538Z,6368.00
2019-06-07T09:01:36.234Z,6028.00
2019-06-07T09:02:35.239Z,5456.00
2019-06-07T09:03:35.214Z,4972.00
2019-06-07T09:04:35.209Z,4776.00
2019-06-07T09:05:35.193Z,5776.00
2019-06-07T09:07:36.200Z,8924.00
2019-06-07T09:08:35.162Z,10016.00
2019-06-07T09:09:35.152Z,9360.00
2019-06-07T09:10:35.155Z,7120.00
2019-06-07T09:11:35.140Z,8972.00
2019-06-07T09:12:35.121Z,8684.00
2019-06-07T09:13:35.109Z,7868.00
2019-06-07T09:14:35.100Z,7928.00
2019-06-07T09:15:35.091Z,6892.00
2019-06-07T09:16:35.089Z,9080.00
2019-06-07T09:17:35.069Z,7856.00
2019-06-07T09:18:43.045Z,5416.00
2019-06-07T09:19:36.045Z,6232.00
2019-06-07T09:20:38.559Z,7148.00
2019-06-07T09:21:35.034Z,6216.00
2019-06-07T09:22:35.067Z,5472.00
2019-06-07T09:23:35.008Z,4756.00
2019-06-07T09:24:35.070Z,4600.00
2019-06-07T09:25:54.932Z,4568.00
2019-06-07T09:26:35.979Z,5040.00
2019-06-07T09:27:34.962Z,4400.00
2019-06-07T09:28:34.952Z,4684.00
2019-06-07T09:29:34.940Z,4744.00
2019-06-07T09:30:34.933Z,4500.00
2019-06-07T09:31:51.794Z,4680.00
2019-06-07T09:32:35.907Z,5004.00
2019-06-07T09:33:34.902Z,5268.00
2019-06-07T09:34:34.885Z,5224.00
2019-06-07T09:35:34.875Z,5768.00
2019-06-07T09:36:34.942Z,7712.00
2019-06-07T09:38:35.845Z,9296.00
2019-06-07T09:39:34.837Z,7992.00
2019-06-07T09:40:34.825Z,7052.00
2019-06-07T09:41:47.424Z,7520.00
2019-06-07T09:42:35.800Z,8840.00
2019-06-07T09:44:35.779Z,7188.00
2019-06-07T09:45:34.769Z,9156.00
2019-06-07T09:46:34.767Z,8388.00
2019-06-07T09:47:34.748Z,9280.00
2019-06-07T09:49:10.153Z,7408.00
2019-06-07T09:49:35.732Z,8596.00
2019-06-07T09:50:34.717Z,8512.00
2019-06-07T09:51:34.721Z,7472.00
2019-06-07T09:52:56.495Z,6720.00
2019-06-07T09:53:35.691Z,6608.00
2019-06-07T09:55:35.666Z,4976.00
2019-06-07T09:56:34.680Z,4472.00
2019-06-07T09:57:34.653Z,4708.00
2019-06-07T09:58:53.371Z,5872.00
2019-06-07T09:59:35.620Z,5560.00
2019-06-07T10:00:40.683Z,5452.00
2019-06-07T10:01:35.609Z,5688.00
2019-06-07T10:02:34.593Z,5620.00
2019-06-07T10:03:34.578Z,6180.00
2019-06-07T10:04:34.568Z,6136.00
2019-06-07T10:05:34.559Z,6080.00
2019-06-07T10:06:34.602Z,6476.00
2019-06-07T10:07:34.558Z,6752.00
2019-06-07T10:09:57.192Z,6504.00
2019-06-07T10:10:09.874Z,6512.00
2019-06-07T10:10:35.624Z,6592.00
2019-06-07T10:11:34.496Z,6432.00
2019-06-07T10:12:34.516Z,6348.00
2019-06-07T10:13:34.481Z,5472.00
2019-06-07T10:14:34.466Z,5412.00
2019-06-07T10:15:34.451Z,4868.00
2019-06-07T10:16:46.173Z,5460.00
2019-06-07T10:17:35.444Z,5340.00
2019-06-07T10:18:34.430Z,5196.00
2019-06-07T10:19:34.411Z,5548.00
2019-06-07T10:20:34.404Z,5092.00
2019-06-07T10:21:34.394Z,5536.00
2019-06-07T10:22:34.390Z,5768.00
2019-06-07T10:23:34.368Z,5808.00
2019-06-07T10:24:34.359Z,5664.00
2019-06-07T10:25:34.347Z,5528.00
2019-06-07T10:26:34.345Z,4988.00
2019-06-07T10:27:34.338Z,4936.00
2019-06-07T10:28:34.318Z,5036.00
2019-06-07T10:29:34.355Z,5428.00
2019-06-07T10:30:34.323Z,5508.00
2019-06-07T10:31:34.303Z,5268.00
2019-06-07T10:32:34.292Z,5164.00
2019-06-07T10:33:34.266Z,5324.00
2019-06-07T10:34:34.288Z,5328.00
2019-06-07T10:35:34.243Z,4504.00
2019-06-07T10:36:34.272Z,5420.00
2019-06-07T10:37:34.249Z,5476.00
2019-06-07T10:38:34.331Z,5324.00
2019-06-07T10:39:47.716Z,5600.00
2019-06-07T10:40:35.206Z,5164.00
2019-06-07T10:41:34.178Z,5008.00
2019-06-07T10:42:34.177Z,5236.00
2019-06-07T10:43:34.166Z,4740.00
2019-06-07T10:44:34.147Z,3188.00
2019-06-07T10:45:34.143Z,3976.00
2019-06-07T10:46:34.129Z,3892.00
2019-06-07T10:47:34.131Z,3796.00
2019-06-07T10:48:34.113Z,3768.00
2019-06-07T10:49:34.103Z,3956.00
2019-06-07T10:50:34.081Z,3988.00
2019-06-07T10:51:34.070Z,4340.00
2019-06-07T10:52:34.074Z,4972.00
2019-06-07T10:53:34.051Z,4432.00
2019-06-07T10:54:34.041Z,4628.00
2019-06-07T10:55:34.035Z,4092.00
2019-06-07T10:56:34.017Z,4176.00
2019-06-07T10:57:34.022Z,4076.00
2019-06-07T10:58:34.000Z,4100.00
2019-06-07T10:59:34.010Z,4980.00
2019-06-07T11:00:33.979Z,5632.00
2019-06-07T11:01:33.991Z,7800.00
2019-06-07T11:02:33.981Z,6584.00
2019-06-07T11:03:33.948Z,5740.00
2019-06-07T11:04:33.943Z,4896.00
2019-06-07T11:05:33.926Z,4696.00
2019-06-07T11:06:33.914Z,4716.00
2019-06-07T11:07:33.916Z,4544.00
2019-06-07T11:08:33.914Z,4780.00
2019-06-07T11:09:33.881Z,5068.00
2019-06-07T11:10:33.870Z,25056.00
2019-06-07T11:11:33.877Z,22464.00
2019-06-07T11:12:33.890Z,25536.00
2019-06-07T11:13:33.845Z,11300.00
2019-06-07T11:14:33.837Z,18560.00
2019-06-07T11:15:33.817Z,5920.00
2019-06-07T11:16:33.807Z,5528.00
2019-06-07T11:17:33.815Z,7364.00
2019-06-07T11:18:34.287Z,7540.00
2019-06-07T11:19:33.786Z,6580.00
2019-06-07T11:20:33.774Z,11552.00
2019-06-07T11:21:33.754Z,22048.00
2019-06-07T11:22:33.742Z,17408.00
2019-06-07T11:23:33.743Z,31584.00
2019-06-07T11:24:33.723Z,37344.00
2019-06-07T11:25:33.724Z,19104.00
2019-06-07T11:26:33.701Z,38496.00
2019-06-07T11:27:33.699Z,32320.00
2019-06-07T11:28:33.688Z,27328.00
2019-06-07T11:29:33.671Z,29440.00
2019-06-07T11:30:33.667Z,27360.00
2019-06-07T11:31:33.647Z,35168.00
2019-06-07T11:32:33.635Z,21376.00
2019-06-07T11:33:33.636Z,40736.00
2019-06-07T11:34:33.642Z,34144.00
2019-06-07T11:35:33.608Z,27872.00
2019-06-07T11:36:33.595Z,31712.00
2019-06-07T11:37:33.587Z,22368.00
2019-06-07T11:38:33.586Z,25344.00
2019-06-07T11:39:33.566Z,22048.00
2019-06-07T11:40:35.966Z,22144.00
2019-06-07T11:41:33.542Z,18208.00
2019-06-07T11:42:33.532Z,6532.00
2019-06-07T11:43:33.530Z,5684.00
2019-06-07T11:44:33.513Z,4196.00
2019-06-07T11:45:33.499Z,4120.00
2019-06-07T11:46:33.492Z,4064.00
2019-06-07T11:47:34.328Z,4152.00
2019-06-07T11:48:33.477Z,3628.00
2019-06-07T11:49:33.456Z,3632.00
2019-06-07T11:50:33.464Z,4048.00
2019-06-07T11:51:33.437Z,4496.00
2019-06-07T11:52:33.428Z,4140.00
2019-06-07T11:53:33.434Z,3964.00
2019-06-07T11:54:33.410Z,8472.00
2019-06-07T11:55:33.396Z,11924.00
2019-06-07T11:56:33.384Z,11548.00
2019-06-07T11:57:33.375Z,10412.00
2019-06-07T11:58:33.376Z,15936.00
2019-06-07T11:59:33.354Z,16544.00
2019-06-07T12:00:34.365Z,14112.00
2019-06-07T12:01:33.333Z,10544.00
2019-06-07T12:02:33.323Z,12384.00
2019-06-07T12:03:33.325Z,14540.00
2019-06-07T12:04:35.127Z,7808.00
2019-06-07T12:05:33.294Z,4144.00
2019-06-07T12:06:33.283Z,6448.00
2019-06-07T12:07:33.272Z,10728.00
2019-06-07T12:08:33.269Z,13596.00
2019-06-07T12:09:33.249Z,3344.00
2019-06-07T12:10:42.154Z,5608.00
2019-06-07T12:11:34.226Z,2768.00
2019-06-07T12:12:33.235Z,2968.00
2019-06-07T12:13:33.234Z,2596.00
2019-06-07T12:14:33.194Z,2700.00
2019-06-07T12:15:33.213Z,2864.00
2019-06-07T12:16:33.175Z,3080.00
2019-06-07T12:17:33.163Z,3148.00
2019-06-07T12:18:33.166Z,3128.00
2019-06-07T12:19:33.144Z,3112.00
2019-06-07T12:20:33.132Z,3104.00
2019-06-07T12:21:33.121Z,3160.00
2019-06-07T12:22:33.110Z,3088.00
2019-06-07T12:23:33.109Z,2960.00
2019-06-07T12:24:33.093Z,2824.00
2019-06-07T12:25:33.080Z,2748.00
2019-06-07T12:26:33.069Z,2868.00
2019-06-07T12:27:33.057Z,2880.00
2019-06-07T12:28:33.057Z,2780.00
2019-06-07T12:29:34.033Z,3052.00
2019-06-07T12:30:33.024Z,3432.00
2019-06-07T12:31:33.016Z,3512.00
2019-06-07T12:32:33.008Z,3544.00